Time;durP1;ratioP1;P1;durP2;ratioP2;P2;SDS_P1;SDS_P2;PMS_P1;PMS_P2;Temp;Humidity;BMP_temperature;BMP_pressure;BME280_temperature;BME280_humidity;BME280_pressure;Samples;Min_cycle;Max_cycle;Signal;HPM_P1;HPM_P2
2022/09/04 00:01:14;;;;;;;1.05;1.00;;;17.10;72.20;;;;;;934240;149;27360;-76
2022/09/04 00:03:47;;;;;;;1.10;1.00;;;17.10;72.50;;;;;;933843;149;27479;-76
2022/09/04 00:06:13;;;;;;;0.70;0.70;;;17.00;72.90;;;;;;935804;149;27366;-76
2022/09/04 00:08:54;;;;;;;0.93;0.93;;;17.00;73.00;;;;;;936141;148;27438;-76
2022/09/04 00:11:41;;;;;;;6.47;1.45;;;17.00;73.20;;;;;;935816;148;27503;-76
2022/09/04 00:14:14;;;;;;;1.10;1.00;;;17.00;73.30;;;;;;934244;148;27475;-75
2022/09/04 00:16:46;;;;;;;0.80;0.80;;;16.90;73.30;;;;;;935975;148;27663;-75
2022/09/04 00:19:15;;;;;;;0.65;0.65;;;16.90;73.60;;;;;;934717;149;27380;-75
2022/09/04 00:21:54;;;;;;;0.98;0.80;;;16.90;73.80;;;;;;934773;149;27436;-75
2022/09/04 00:24:26;;;;;;;1.20;1.10;;;16.80;73.90;;;;;;935351;148;27843;-75
2022/09/04 00:27:01;;;;;;;0.80;0.80;;;16.80;74.10;;;;;;927452;148;27302;-75
2022/09/04 00:29:40;;;;;;;1.80;1.47;;;16.80;74.40;;;;;;931342;149;27431;-75
2022/09/04 00:32:13;;;;;;;1.50;1.33;;;16.80;74.60;;;;;;935474;148;27340;-75
2022/09/04 00:35:07;;;;;;;1.02;1.02;;;16.80;74.80;;;;;;934906;148;27286;-75
2022/09/04 00:37:39;;;;;;;1.00;1.00;;;16.80;75.00;;;;;;935145;148;27462;-76
2022/09/04 00:40:24;;;;;;;1.20;0.90;;;16.80;74.90;;;;;;936795;148;27375;-76
2022/09/04 00:43:09;;;;;;;0.87;0.87;;;16.70;75.00;;;;;;936426;148;27346;-75
2022/09/04 00:46:13;;;;;;;1.00;1.00;;;16.70;75.10;;;;;;937289;151;27440;-74
2022/09/04 00:48:51;;;;;;;0.77;0.77;;;16.70;75.20;;;;;;935758;148;27374;-75
2022/09/04 00:51:24;;;;;;;0.60;0.60;;;16.70;75.10;;;;;;936767;148;27470;-74
2022/09/04 00:53:53;;;;;;;1.03;1.03;;;16.70;75.50;;;;;;935977;151;27342;-74
2022/09/04 00:56:57;;;;;;;0.95;0.90;;;16.60;75.70;;;;;;936639;151;27477;-74
2022/09/04 00:59:54;;;;;;;0.60;0.60;;;16.60;75.90;;;;;;938218;151;27302;-75
2022/09/04 01:02:39;;;;;;;1.20;1.10;;;16.60;75.80;;;;;;936584;151;27844;-74
2022/09/04 01:05:08;;;;;;;0.90;0.90;;;16.60;75.80;;;;;;934272;151;27395;-74
2022/09/04 01:08:02;;;;;;;0.90;0.90;;;16.50;75.90;;;;;;935160;151;27393;-74
2022/09/04 01:10:28;;;;;;;0.83;0.83;;;16.50;76.10;;;;;;936453;148;27378;-74
2022/09/04 01:13:20;;;;;;;0.70;0.70;;;16.50;76.10;;;;;;933748;151;27321;-75
2022/09/04 01:15:46;;;;;;;0.98;0.90;;;16.50;76.60;;;;;;934303;151;27459;-75
2022/09/04 01:18:37;;;;;;;0.80;0.80;;;16.40;76.60;;;;;;936635;148;27430;-75
2022/09/04 01:21:10;;;;;;;1.00;1.00;;;16.40;76.90;;;;;;933710;151;27359;-75
2022/09/04 01:23:52;;;;;;;0.80;0.80;;;16.40;76.80;;;;;;932774;148;27345;-75
2022/09/04 01:26:21;;;;;;;0.93;0.93;;;16.40;77.00;;;;;;936301;151;27385;-75
2022/09/04 01:29:10;;;;;;;0.83;0.83;;;16.30;77.00;;;;;;936637;151;27357;-74
2022/09/04 01:31:58;;;;;;;1.17;1.10;;;16.30;77.30;;;;;;934626;148;27448;-74
2022/09/04 01:34:39;;;;;;;0.80;0.80;;;16.30;77.30;;;;;;937155;151;27361;-75
2022/09/04 01:37:33;;;;;;;0.93;0.90;;;16.30;77.50;;;;;;936503;149;27382;-74
2022/09/04 01:40:00;;;;;;;2.10;1.10;;;16.30;77.80;;;;;;934604;148;28160;-74
2022/09/04 01:42:29;;;;;;;3.40;1.20;;;16.20;78.40;;;;;;933818;148;27330;-74
2022/09/04 01:44:56;;;;;;;1.23;0.90;;;16.20;78.20;;;;;;936077;149;27389;-75
2022/09/04 01:47:26;;;;;;;1.20;1.10;;;16.20;78.50;;;;;;935604;148;27375;-74
2022/09/04 01:50:10;;;;;;;1.17;1.07;;;16.10;78.70;;;;;;934406;149;27476;-75
2022/09/04 01:52:58;;;;;;;1.57;1.47;;;16.10;78.80;;;;;;919936;149;27365;-74
2022/09/04 01:55:27;;;;;;;0.90;0.90;;;16.10;78.60;;;;;;932707;149;27336;-75
2022/09/04 01:57:59;;;;;;;1.00;1.00;;;16.10;78.70;;;;;;933868;148;27343;-74
2022/09/04 02:00:26;;;;;;;1.00;1.00;;;16.00;78.90;;;;;;936090;149;27481;-74
2022/09/04 02:02:52;;;;;;;1.10;1.10;;;16.00;79.30;;;;;;935201;148;27702;-75
2022/09/04 02:05:31;;;;;;;1.27;1.20;;;16.00;79.60;;;;;;935570;149;27384;-74
2022/09/04 02:08:05;;;;;;;1.00;1.00;;;16.00;79.80;;;;;;932947;148;27351;-74
2022/09/04 02:10:36;;;;;;;1.60;1.50;;;16.00;80.00;;;;;;934223;148;27368;-74
2022/09/04 02:13:21;;;;;;;3.00;1.70;;;15.90;80.30;;;;;;935673;149;27324;-74
2022/09/04 02:15:59;;;;;;;1.50;1.40;;;15.90;80.70;;;;;;936499;148;27401;-74
2022/09/04 02:18:44;;;;;;;1.47;1.37;;;15.90;80.90;;;;;;937223;149;27341;-74
2022/09/04 02:21:10;;;;;;;1.40;1.30;;;15.90;81.20;;;;;;935781;148;27427;-75
2022/09/04 02:23:39;;;;;;;1.20;1.20;;;15.90;81.40;;;;;;935674;149;27473;-75
2022/09/04 02:26:27;;;;;;;1.67;1.57;;;15.90;81.80;;;;;;933965;149;27303;-75
2022/09/04 02:29:00;;;;;;;2.20;2.10;;;15.90;82.30;;;;;;933837;149;27346;-76
2022/09/04 02:31:32;;;;;;;2.23;2.13;;;15.90;82.50;;;;;;935613;149;27364;-76
2022/09/04 02:34:07;;;;;;;1.83;1.73;;;15.90;83.10;;;;;;934941;149;27351;-76
2022/09/04 02:36:46;;;;;;;2.70;2.02;;;15.90;83.40;;;;;;934120;149;27357;-75
2022/09/04 02:39:18;;;;;;;1.90;1.80;;;15.90;83.60;;;;;;938199;148;27396;-75
2022/09/04 02:41:54;;;;;;;2.30;2.10;;;15.90;83.80;;;;;;941729;148;27711;-76
2022/09/04 02:44:32;;;;;;;2.13;2.03;;;15.90;84.00;;;;;;940704;148;27370;-76
2022/09/04 02:47:24;;;;;;;2.07;1.97;;;15.90;84.20;;;;;;940795;148;27984;-77
2022/09/04 02:50:15;;;;;;;2.77;2.20;;;15.80;84.20;;;;;;939806;148;27389;-76
2022/09/04 02:52:58;;;;;;;2.00;1.90;;;15.80;84.20;;;;;;912188;151;27425;-76
2022/09/04 02:55:32;;;;;;;2.10;2.00;;;15.80;84.40;;;;;;939582;148;27418;-76
2022/09/04 02:58:07;;;;;;;1.87;1.77;;;15.80;84.80;;;;;;940679;148;27314;-75
2022/09/04 03:00:54;;;;;;;2.90;2.30;;;15.80;85.10;;;;;;939225;148;27371;-75
2022/09/04 03:03:21;;;;;;;1.72;1.62;;;15.70;85.40;;;;;;941301;148;27474;-76
2022/09/04 03:05:57;;;;;;;1.90;1.80;;;15.70;85.40;;;;;;940027;148;27736;-76
2022/09/04 03:08:32;;;;;;;2.23;2.13;;;15.70;85.70;;;;;;930016;148;27419;-77
2022/09/04 03:11:17;;;;;;;2.17;2.07;;;15.70;85.90;;;;;;937663;148;27277;-75
2022/09/04 03:13:50;;;;;;;2.30;2.20;;;15.70;86.20;;;;;;939940;148;27325;-75
2022/09/04 03:16:16;;;;;;;2.40;2.30;;;15.60;86.20;;;;;;940528;148;27400;-75
2022/09/04 03:19:04;;;;;;;2.20;2.10;;;15.60;86.70;;;;;;939154;148;27336;-75
2022/09/04 03:21:48;;;;;;;2.40;2.30;;;15.60;87.00;;;;;;940620;148;27478;-75
2022/09/04 03:24:42;;;;;;;2.77;2.57;;;15.60;87.20;;;;;;939840;148;27842;-75
2022/09/04 03:27:09;;;;;;;2.17;2.07;;;15.60;87.50;;;;;;940209;148;27336;-76
2022/09/04 03:30:09;;;;;;;2.53;2.33;;;15.50;87.60;;;;;;939190;148;27372;-75
2022/09/04 03:32:51;;;;;;;2.50;2.30;;;15.50;88.20;;;;;;940184;148;27389;-75
2022/09/04 03:35:44;;;;;;;2.43;2.30;;;15.50;88.50;;;;;;939003;148;27376;-75
2022/09/04 03:38:29;;;;;;;2.60;2.40;;;15.50;89.00;;;;;;940048;148;27315;-76
2022/09/04 03:40:59;;;;;;;3.43;3.07;;;15.50;89.30;;;;;;932027;152;27386;-75
2022/09/04 03:43:33;;;;;;;2.43;2.23;;;15.50;89.60;;;;;;930982;149;27435;-75
2022/09/04 03:46:12;;;;;;;2.70;2.50;;;15.50;90.10;;;;;;933569;150;27307;-75
2022/09/04 03:48:57;;;;;;;2.80;2.50;;;15.50;90.30;;;;;;934475;149;27334;-75
2022/09/04 03:51:38;;;;;;;2.70;2.50;;;15.50;90.60;;;;;;916929;154;27434;-75
2022/09/04 03:54:11;;;;;;;2.40;2.30;;;15.50;91.00;;;;;;918377;155;27355;-75
2022/09/04 03:56:37;;;;;;;2.70;2.50;;;15.60;91.20;;;;;;899699;152;27496;-75
2022/09/04 03:59:07;;;;;;;2.90;2.70;;;15.60;91.30;;;;;;932047;152;27475;-75
2022/09/04 04:01:54;;;;;;;2.67;2.47;;;15.60;91.00;;;;;;933614;149;27333;-75
2022/09/04 04:04:38;;;;;;;2.83;2.63;;;15.70;91.40;;;;;;932093;151;27384;-75
2022/09/04 04:07:14;;;;;;;2.47;2.27;;;15.70;91.30;;;;;;934424;150;27391;-75
2022/09/04 04:10:05;;;;;;;2.60;2.40;;;15.70;91.20;;;;;;935007;150;27479;-75
2022/09/04 04:12:49;;;;;;;2.80;2.60;;;15.70;91.30;;;;;;933900;152;27301;-74
2022/09/04 04:15:27;;;;;;;2.53;2.40;;;15.70;91.30;;;;;;933210;150;27444;-74
2022/09/04 04:17:54;;;;;;;2.60;2.40;;;15.70;91.40;;;;;;932248;152;27435;-74
2022/09/04 04:20:28;;;;;;;2.60;2.40;;;15.70;91.40;;;;;;932690;150;27484;-75
2022/09/04 04:23:24;;;;;;;2.58;2.37;;;15.70;91.50;;;;;;933431;152;27400;-75
2022/09/04 04:26:02;;;;;;;2.73;2.53;;;15.70;91.60;;;;;;933284;149;27382;-75
2022/09/04 04:28:45;;;;;;;2.63;2.43;;;15.70;91.60;;;;;;931334;152;27904;-75
2022/09/04 04:31:35;;;;;;;2.45;2.25;;;15.70;91.80;;;;;;932106;149;27455;-75
2022/09/04 04:34:07;;;;;;;2.63;2.43;;;15.70;91.90;;;;;;931408;152;27345;-75
2022/09/04 04:36:44;;;;;;;2.70;2.50;;;15.70;91.80;;;;;;932941;149;27497;-75
2022/09/04 04:39:27;;;;;;;2.63;2.43;;;15.70;91.90;;;;;;931493;151;27457;-75
2022/09/04 04:42:08;;;;;;;2.47;2.37;;;15.70;92.10;;;;;;936217;149;27386;-75
2022/09/04 04:47:47;;;;;;;2.33;2.13;;;15.80;92.20;;;;;;938110;148;27560;-76
2022/09/04 04:50:26;;;;;;;2.00;1.90;;;15.80;92.10;;;;;;936736;149;27463;-75
2022/09/04 04:52:54;;;;;;;2.20;2.10;;;15.80;92.30;;;;;;937334;149;27440;-75
2022/09/04 04:55:46;;;;;;;2.60;2.40;;;15.80;92.30;;;;;;925617;151;27358;-75
2022/09/04 04:58:15;;;;;;;3.27;2.50;;;15.80;92.60;;;;;;936288;149;27975;-75
2022/09/04 05:00:47;;;;;;;4.40;3.40;;;15.80;92.60;;;;;;935764;148;27380;-75
2022/09/04 05:03:48;;;;;;;2.70;2.50;;;15.80;92.80;;;;;;935192;149;28279;-75
2022/09/04 05:06:17;;;;;;;2.83;2.63;;;15.90;93.10;;;;;;918144;153;27413;-75
2022/09/04 05:08:55;;;;;;;2.70;2.50;;;15.90;92.90;;;;;;929055;149;27309;-74
2022/09/04 05:11:27;;;;;;;2.90;2.70;;;16.00;93.10;;;;;;936808;151;27321;-75
2022/09/04 05:14:06;;;;;;;2.97;2.70;;;16.00;93.20;;;;;;936250;148;27302;-75
2022/09/04 05:16:48;;;;;;;2.60;2.40;;;16.10;93.40;;;;;;933907;151;27365;-75
2022/09/04 05:19:15;;;;;;;3.00;2.33;;;16.10;93.60;;;;;;931877;149;27474;-75
2022/09/04 05:21:56;;;;;;;3.40;3.10;;;16.20;93.70;;;;;;935762;151;27437;-75
2022/09/04 05:27:54;;;;;;;2.92;2.72;;;16.40;93.80;;;;;;902713;155;27468;-74
2022/09/04 05:30:27;;;;;;;2.75;2.55;;;16.50;93.80;;;;;;902929;155;28819;-74
2022/09/04 05:33:02;;;;;;;3.08;2.87;;;16.60;93.90;;;;;;884670;156;27499;-74
2022/09/04 05:35:40;;;;;;;3.17;2.97;;;16.70;94.10;;;;;;902303;155;27339;-74
2022/09/04 05:38:13;;;;;;;3.75;3.45;;;16.90;94.10;;;;;;888714;157;27954;-74
2022/09/04 05:41:07;;;;;;;3.33;3.12;;;16.90;94.10;;;;;;894904;158;27406;-75
2022/09/04 05:43:40;;;;;;;3.37;3.17;;;17.10;94.10;;;;;;895249;158;27337;-75
2022/09/04 05:46:18;;;;;;;3.85;3.55;;;17.20;94.00;;;;;;895815;158;27310;-74
2022/09/04 05:49:03;;;;;;;3.65;3.37;;;17.30;94.20;;;;;;895488;157;27677;-74
2022/09/04 05:51:44;;;;;;;3.27;3.02;;;17.50;94.40;;;;;;895138;159;27810;-74
2022/09/04 05:54:16;;;;;;;3.75;3.45;;;17.70;94.30;;;;;;898523;158;27365;-74
2022/09/04 05:56:55;;;;;;;3.52;3.22;;;17.90;94.20;;;;;;896567;159;27342;-74
2022/09/04 05:59:30;;;;;;;3.77;3.55;;;18.00;94.10;;;;;;895350;159;27303;-75
2022/09/04 06:02:02;;;;;;;4.08;3.67;;;18.20;93.90;;;;;;897086;156;27467;-74
2022/09/04 06:04:47;;;;;;;4.37;4.03;;;18.40;94.20;;;;;;896045;157;27435;-74
2022/09/04 06:07:26;;;;;;;3.72;3.42;;;18.60;94.30;;;;;;879343;159;27376;-75
2022/09/04 06:10:14;;;;;;;3.52;3.30;;;18.80;94.30;;;;;;893195;159;27468;-75
2022/09/04 06:12:46;;;;;;;3.50;3.20;;;19.00;93.90;;;;;;908224;153;27440;-75
2022/09/04 06:15:19;;;;;;;3.80;3.50;;;19.20;93.20;;;;;;894681;159;27367;-75
2022/09/04 06:18:00;;;;;;;3.45;3.15;;;19.40;92.50;;;;;;894404;157;27407;-74
2022/09/04 06:20:57;;;;;;;3.60;3.30;;;19.50;91.90;;;;;;895435;158;27354;-74
2022/09/04 06:23:26;;;;;;;3.27;3.08;;;19.70;91.60;;;;;;897070;158;27343;-75
2022/09/04 06:26:14;;;;;;;3.45;3.15;;;19.80;91.40;;;;;;897582;156;27399;-75
2022/09/04 06:28:46;;;;;;;3.92;3.62;;;19.90;91.10;;;;;;908391;156;27487;-75
2022/09/04 06:31:18;;;;;;;3.40;3.12;;;20.00;90.80;;;;;;906467;154;27392;-75
2022/09/04 06:33:51;;;;;;;3.65;3.45;;;20.10;90.70;;;;;;906764;156;27346;-75
2022/09/04 06:36:26;;;;;;;3.98;3.33;;;20.20;90.70;;;;;;906175;156;27412;-74
2022/09/04 06:38:53;;;;;;;3.62;3.37;;;20.30;90.60;;;;;;909189;155;27468;-75
2022/09/04 06:41:49;;;;;;;3.65;3.37;;;20.50;90.50;;;;;;910367;154;27531;-75
2022/09/04 06:44:38;;;;;;;3.30;3.00;;;20.60;90.40;;;;;;907694;154;27513;-75
2022/09/04 06:47:10;;;;;;;4.05;3.75;;;20.70;90.10;;;;;;907567;155;27440;-74
2022/09/04 06:49:42;;;;;;;3.62;3.33;;;20.90;89.70;;;;;;908471;156;27383;-75
2022/09/04 06:52:37;;;;;;;4.03;3.72;;;21.00;89.50;;;;;;911172;155;27470;-76
2022/09/04 06:55:41;;;;;;;2.92;2.75;;;21.10;89.40;;;;;;902589;156;27406;-75
2022/09/04 06:58:18;;;;;;;3.85;3.55;;;21.30;89.40;;;;;;909132;155;28072;-76
2022/09/04 07:00:52;;;;;;;3.83;3.52;;;21.50;89.80;;;;;;908648;155;27463;-76
2022/09/04 07:03:32;;;;;;;3.70;3.50;;;21.70;90.10;;;;;;906307;155;27364;-75
2022/09/04 07:06:02;;;;;;;3.45;3.25;;;21.90;89.60;;;;;;907750;156;27433;-75
2022/09/04 07:08:46;;;;;;;3.33;3.12;;;22.20;88.80;;;;;;906503;156;27343;-74
2022/09/04 07:11:19;;;;;;;2.98;2.77;;;22.40;87.80;;;;;;906505;155;27509;-75
2022/09/04 07:13:54;;;;;;;3.55;3.27;;;22.70;87.00;;;;;;909309;155;28455;-76
2022/09/04 07:16:29;;;;;;;3.83;3.52;;;22.90;85.80;;;;;;910273;154;27357;-75
2022/09/04 07:19:31;;;;;;;3.55;3.30;;;23.20;84.70;;;;;;907229;156;27465;-75
2022/09/04 07:22:16;;;;;;;3.02;2.60;;;23.30;83.50;;;;;;907217;155;27361;-78
2022/09/04 07:24:58;;;;;;;3.08;2.87;;;23.60;82.30;;;;;;904648;156;27444;-77
2022/09/04 07:27:33;;;;;;;3.45;3.15;;;23.90;82.00;;;;;;915552;153;27385;-81
2022/09/04 07:29:58;;;;;;;3.58;3.27;;;24.20;81.80;;;;;;917294;153;27413;-79
2022/09/04 07:32:34;;;;;;;3.62;3.30;;;24.50;81.20;;;;;;926833;153;27804;-78
2022/09/04 07:35:03;;;;;;;5.87;4.37;;;24.80;80.40;;;;;;921145;153;27380;-78
2022/09/04 07:37:45;;;;;;;5.47;4.83;;;25.20;79.80;;;;;;927687;153;27408;-78
2022/09/04 07:40:14;;;;;;;4.83;4.42;;;25.50;78.80;;;;;;928784;153;27443;-79
2022/09/04 07:43:04;;;;;;;5.45;4.95;;;25.90;77.60;;;;;;928016;153;27322;-78
2022/09/04 07:45:46;;;;;;;5.75;5.25;;;26.20;76.00;;;;;;927945;153;27375;-79
2022/09/04 07:48:27;;;;;;;5.17;4.78;;;26.60;75.00;;;;;;927624;153;27390;-78
2022/09/04 07:51:02;;;;;;;5.45;4.95;;;27.00;73.90;;;;;;927564;153;27374;-78
2022/09/04 07:53:42;;;;;;;5.08;4.67;;;27.20;72.50;;;;;;927479;153;27520;-79
2022/09/04 07:56:08;;;;;;;6.08;5.47;;;27.50;71.00;;;;;;926170;153;27310;-79
2022/09/04 07:58:50;;;;;;;6.70;6.10;;;27.70;69.80;;;;;;928878;153;27350;-78
2022/09/04 08:01:40;;;;;;;7.42;6.67;;;27.80;68.50;;;;;;909700;153;28033;-78
2022/09/04 08:04:19;;;;;;;8.03;7.30;;;27.90;68.10;;;;;;928826;153;27923;-79
2022/09/04 08:06:48;;;;;;;8.25;7.42;;;28.00;68.50;;;;;;930348;151;27365;-79
2022/09/04 08:09:33;;;;;;;7.20;6.50;;;28.40;70.00;;;;;;926292;153;27443;-79
2022/09/04 08:12:09;;;;;;;7.12;6.37;;;28.90;71.20;;;;;;929326;153;27376;-79
2022/09/04 08:15:00;;;;;;;6.85;6.25;;;29.70;71.70;;;;;;926169;153;27457;-79
2022/09/04 08:17:41;;;;;;;6.97;6.33;;;30.70;71.40;;;;;;928205;153;27350;-79
2022/09/04 08:20:11;;;;;;;6.80;5.95;;;31.80;69.80;;;;;;928795;153;27397;-79
2022/09/04 08:22:49;;;;;;;7.08;6.40;;;32.90;67.60;;;;;;927993;153;26300;-79
2022/09/04 08:25:28;;;;;;;5.35;4.85;;;33.90;65.90;;;;;;929689;150;26430;-79
2022/09/04 08:28:04;;;;;;;6.70;6.10;;;34.90;62.70;;;;;;918371;150;26313;-79
2022/09/04 08:30:30;;;;;;;7.78;6.12;;;35.80;59.20;;;;;;903192;157;26347;-79
2022/09/04 08:33:15;;;;;;;7.22;6.47;;;36.60;57.40;;;;;;897292;158;28288;-80
2022/09/04 08:35:51;;;;;;;5.87;5.37;;;37.10;55.70;;;;;;897201;158;26497;-79
2022/09/04 08:38:23;;;;;;;6.03;5.53;;;37.60;55.00;;;;;;897303;158;26330;-80
2022/09/04 08:41:01;;;;;;;6.67;6.08;;;38.10;54.00;;;;;;900666;156;26240;-79
2022/09/04 08:43:52;;;;;;;6.30;5.80;;;38.50;53.10;;;;;;901849;155;26304;-80
2022/09/04 08:46:28;;;;;;;6.53;5.90;;;39.00;52.10;;;;;;897986;158;26303;-79
2022/09/04 08:49:32;;;;;;;6.95;6.25;;;39.50;51.30;;;;;;896071;158;26404;-80
2022/09/04 08:52:26;;;;;;;5.87;5.37;;;39.90;50.10;;;;;;897949;158;26430;-77
2022/09/04 08:55:04;;;;;;;6.92;6.25;;;40.40;49.60;;;;;;898655;157;26530;-77
2022/09/04 08:57:42;;;;;;;7.65;6.30;;;40.80;48.70;;;;;;896922;158;27446;-78
2022/09/04 09:00:15;;;;;;;6.53;5.92;;;41.10;48.00;;;;;;898138;157;26381;-77
2022/09/04 09:02:59;;;;;;;5.03;4.37;;;41.50;46.50;;;;;;897793;157;26307;-77
2022/09/04 09:05:41;;;;;;;6.10;5.53;;;41.70;46.00;;;;;;897104;158;26636;-77
2022/09/04 09:08:23;;;;;;;5.10;4.62;;;41.90;45.40;;;;;;902960;157;26409;-78
2022/09/04 09:11:04;;;;;;;5.60;5.10;;;42.10;44.70;;;;;;871470;161;26409;-75
2022/09/04 09:14:07;;;;;;;5.12;4.62;;;42.20;43.90;;;;;;900982;157;26339;-75
2022/09/04 09:16:55;;;;;;;4.75;4.35;;;42.40;43.50;;;;;;900332;157;26469;-75
2022/09/04 09:19:28;;;;;;;4.45;4.05;;;42.50;43.20;;;;;;897851;158;26315;-75
2022/09/04 09:22:15;;;;;;;5.08;4.00;;;42.70;42.80;;;;;;896204;158;26247;-75
2022/09/04 09:25:19;;;;;;;4.90;4.50;;;42.80;42.40;;;;;;899919;158;26407;-75
2022/09/04 09:28:15;;;;;;;4.28;3.90;;;43.00;42.10;;;;;;904071;157;26390;-77
2022/09/04 09:31:20;;;;;;;5.10;4.70;;;43.10;41.80;;;;;;901546;157;26348;-77
2022/09/04 09:34:05;;;;;;;3.65;3.37;;;43.20;41.00;;;;;;897937;157;26329;-80
2022/09/04 09:37:05;;;;;;;4.03;3.72;;;43.30;40.70;;;;;;899230;158;26413;-79
2022/09/04 09:39:50;;;;;;;4.42;4.12;;;43.30;40.20;;;;;;897647;158;26398;-78
2022/09/04 09:42:48;;;;;;;5.42;4.92;;;43.20;40.00;;;;;;896506;158;26290;-81
2022/09/04 09:45:51;;;;;;;5.40;4.90;;;43.10;39.40;;;;;;898791;158;26342;-79
2022/09/04 09:48:17;;;;;;;4.62;4.22;;;42.90;39.00;;;;;;896857;158;26268;-78
2022/09/04 09:51:22;;;;;;;5.62;5.05;;;42.50;38.70;;;;;;901704;157;26383;-78
2022/09/04 09:54:25;;;;;;;4.92;4.50;;;42.10;37.90;;;;;;903376;156;26293;-78
2022/09/04 09:57:13;;;;;;;5.00;4.58;;;41.40;37.80;;;;;;899280;158;28422;-77
2022/09/04 10:00:07;;;;;;;4.35;4.03;;;40.60;38.50;;;;;;898216;158;26391;-77
2022/09/04 10:02:36;;;;;;;5.05;4.12;;;39.90;38.90;;;;;;897768;158;26360;-77
2022/09/04 10:05:24;;;;;;;4.42;4.03;;;39.30;39.40;;;;;;900890;155;27556;-77
2022/09/04 10:08:16;;;;;;;4.35;3.95;;;38.80;39.90;;;;;;903842;155;26295;-77
2022/09/04 10:11:12;;;;;;;4.22;3.92;;;38.40;40.30;;;;;;897353;158;27532;-77
2022/09/04 10:14:00;;;;;;;4.75;3.67;;;38.10;40.60;;;;;;898786;158;26330;-77
2022/09/04 10:16:38;;;;;;;3.67;3.37;;;37.80;40.60;;;;;;897264;158;27434;-77
2022/09/04 10:19:20;;;;;;;3.45;3.15;;;37.50;40.80;;;;;;898013;158;27896;-77
2022/09/04 10:21:50;;;;;;;4.12;3.72;;;37.10;40.90;;;;;;902235;157;27411;-78
2022/09/04 10:24:34;;;;;;;3.77;3.47;;;36.80;40.90;;;;;;903289;155;27847;-78
2022/09/04 10:27:09;;;;;;;3.72;3.05;;;36.40;41.00;;;;;;896826;157;27594;-78
2022/09/04 10:29:38;;;;;;;2.83;2.62;;;36.00;41.40;;;;;;902258;154;28651;-78
2022/09/04 10:32:39;;;;;;;3.17;2.87;;;35.60;41.70;;;;;;904975;154;27462;-78
2022/09/04 10:35:09;;;;;;;2.45;2.25;;;35.20;41.90;;;;;;874767;159;27532;-77
2022/09/04 10:37:35;;;;;;;2.80;2.60;;;34.90;42.20;;;;;;911216;152;27390;-77
2022/09/04 10:40:34;;;;;;;2.60;2.40;;;34.60;42.40;;;;;;918327;152;27394;-77
2022/09/04 10:43:13;;;;;;;2.27;2.10;;;34.40;42.70;;;;;;917529;152;27551;-77
2022/09/04 10:45:40;;;;;;;2.15;2.05;;;34.20;43.00;;;;;;906808;155;27469;-77
2022/09/04 10:48:09;;;;;;;1.77;1.67;;;34.00;43.20;;;;;;903919;156;27441;-77
2022/09/04 10:51:13;;;;;;;1.50;1.40;;;33.90;43.10;;;;;;905436;156;27397;-78
2022/09/04 10:53:50;;;;;;;1.52;1.40;;;33.70;43.00;;;;;;906927;154;27373;-77
2022/09/04 10:56:21;;;;;;;1.65;1.55;;;33.60;43.10;;;;;;886318;159;27592;-77
2022/09/04 10:58:51;;;;;;;2.22;1.90;;;33.50;43.20;;;;;;907295;155;27444;-77
2022/09/04 11:01:32;;;;;;;1.85;1.75;;;33.40;43.20;;;;;;906811;154;27396;-78
2022/09/04 11:04:26;;;;;;;2.20;2.00;;;33.30;43.30;;;;;;908036;155;27369;-78
2022/09/04 11:07:07;;;;;;;1.60;1.50;;;33.20;43.30;;;;;;907706;155;27373;-78
2022/09/04 11:09:31;;;;;;;2.52;2.33;;;33.10;43.50;;;;;;903238;155;27435;-77
2022/09/04 11:12:27;;;;;;;2.75;2.15;;;33.00;43.60;;;;;;907916;155;27877;-77
2022/09/04 11:15:13;;;;;;;2.30;2.10;;;33.00;43.70;;;;;;908551;153;27501;-77
2022/09/04 11:18:01;;;;;;;2.40;2.20;;;32.90;44.00;;;;;;908734;155;27398;-78
2022/09/04 11:20:30;;;;;;;2.47;2.20;;;32.80;44.00;;;;;;908234;156;27382;-77
2022/09/04 11:23:03;;;;;;;2.60;2.40;;;32.70;44.20;;;;;;909141;155;27325;-77
2022/09/04 11:25:47;;;;;;;2.12;2.02;;;32.70;44.20;;;;;;907879;155;27484;-77
2022/09/04 11:28:25;;;;;;;2.00;1.90;;;32.50;44.00;;;;;;908822;155;27347;-77
2022/09/04 11:31:04;;;;;;;2.17;1.98;;;32.50;44.10;;;;;;922196;153;27445;-77
2022/09/04 11:33:52;;;;;;;2.25;2.05;;;32.40;44.10;;;;;;928808;151;27430;-77
2022/09/04 11:36:28;;;;;;;2.27;2.10;;;32.30;44.00;;;;;;928934;151;27399;-77
2022/09/04 11:39:02;;;;;;;2.50;2.35;;;32.20;44.20;;;;;;928709;151;27361;-77
2022/09/04 11:41:56;;;;;;;2.08;1.98;;;32.10;44.30;;;;;;929453;153;28120;-77
2022/09/04 11:44:37;;;;;;;2.45;2.25;;;32.10;44.50;;;;;;925132;153;27404;-77
2022/09/04 11:47:22;;;;;;;2.40;2.20;;;32.00;44.50;;;;;;927975;153;27380;-79
2022/09/04 11:50:19;;;;;;;2.42;2.22;;;32.00;44.80;;;;;;928519;153;27352;-78
2022/09/04 11:53:10;;;;;;;2.30;2.20;;;31.90;44.80;;;;;;928615;153;27474;-81
2022/09/04 11:55:45;;;;;;;2.30;2.10;;;31.90;44.80;;;;;;927525;151;27336;-81
2022/09/04 11:58:20;;;;;;;2.25;2.15;;;31.90;45.00;;;;;;928144;153;27455;-78
2022/09/04 12:01:02;;;;;;;2.50;2.30;;;31.80;45.00;;;;;;928476;153;27742;-78
2022/09/04 12:03:34;;;;;;;3.42;2.27;;;31.80;45.00;;;;;;926817;153;27546;-78
2022/09/04 12:06:25;;;;;;;1.62;1.52;;;31.90;44.90;;;;;;919193;153;27921;-78
2022/09/04 12:08:52;;;;;;;1.90;1.65;;;31.80;44.60;;;;;;929074;151;27500;-78
2022/09/04 12:11:36;;;;;;;1.62;1.52;;;31.80;44.50;;;;;;929118;153;27407;-78
2022/09/04 12:14:21;;;;;;;1.60;1.50;;;31.80;44.40;;;;;;927179;153;27387;-78
2022/09/04 12:17:14;;;;;;;3.12;1.70;;;31.80;44.40;;;;;;927234;153;27828;-80
2022/09/04 12:19:57;;;;;;;2.12;1.72;;;31.70;44.20;;;;;;912471;153;27375;-79
2022/09/04 12:23:00;;;;;;;1.62;1.50;;;31.70;44.30;;;;;;927507;153;27470;-78
2022/09/04 12:25:35;;;;;;;1.40;1.30;;;31.60;44.20;;;;;;929533;151;27773;-78
2022/09/04 12:28:32;;;;;;;1.35;1.30;;;31.60;44.00;;;;;;927188;153;27366;-78
2022/09/04 12:31:17;;;;;;;1.60;1.50;;;31.60;44.00;;;;;;927140;153;27436;-78
2022/09/04 12:33:46;;;;;;;2.50;1.50;;;31.50;44.00;;;;;;927734;153;27815;-78
2022/09/04 12:36:15;;;;;;;1.90;1.80;;;31.50;44.00;;;;;;927094;153;27445;-78
2022/09/04 12:39:02;;;;;;;1.70;1.60;;;31.50;44.00;;;;;;925560;153;27415;-78
2022/09/04 12:41:39;;;;;;;1.65;1.55;;;31.50;44.00;;;;;;927647;153;27450;-78
2022/09/04 12:44:11;;;;;;;2.02;1.82;;;31.50;43.80;;;;;;926223;153;27372;-78
2022/09/04 12:46:47;;;;;;;1.72;1.62;;;31.50;43.80;;;;;;927219;153;27448;-78
2022/09/04 12:49:23;;;;;;;1.95;1.85;;;31.50;43.90;;;;;;929622;153;27403;-78
2022/09/04 12:51:51;;;;;;;3.08;1.80;;;31.50;43.80;;;;;;919042;153;27521;-78
2022/09/04 12:54:42;;;;;;;2.00;1.80;;;31.40;43.80;;;;;;927316;153;27342;-78
2022/09/04 12:57:31;;;;;;;1.92;1.82;;;31.40;43.90;;;;;;929149;153;27397;-78
2022/09/04 13:00:11;;;;;;;2.00;1.90;;;31.40;43.80;;;;;;927734;151;27470;-78
2022/09/04 13:02:43;;;;;;;2.00;1.90;;;31.40;43.60;;;;;;926437;153;27370;-78
2022/09/04 13:05:10;;;;;;;2.00;1.90;;;31.40;43.40;;;;;;927726;153;27363;-78
2022/09/04 13:07:46;;;;;;;2.08;1.98;;;31.40;43.40;;;;;;925821;153;27391;-78
2022/09/04 13:10:33;;;;;;;2.37;2.17;;;31.40;43.60;;;;;;929721;153;27476;-78
2022/09/04 13:13:12;;;;;;;2.12;2.02;;;31.40;43.60;;;;;;928456;153;27354;-78
2022/09/04 13:15:45;;;;;;;1.80;1.70;;;31.40;43.50;;;;;;929849;153;28028;-78
2022/09/04 13:18:33;;;;;;;2.20;2.00;;;31.40;43.30;;;;;;920260;153;27464;-78
2022/09/04 13:21:21;;;;;;;2.00;1.90;;;31.40;43.10;;;;;;928141;153;27450;-77
2022/09/04 13:24:15;;;;;;;1.80;1.70;;;31.30;43.00;;;;;;927272;153;27471;-77
2022/09/04 13:26:53;;;;;;;1.57;1.47;;;31.30;42.90;;;;;;929724;153;27385;-77
2022/09/04 13:29:26;;;;;;;1.75;1.65;;;31.20;42.90;;;;;;928908;153;27378;-77
2022/09/04 13:32:01;;;;;;;2.00;1.90;;;31.20;42.80;;;;;;927166;153;27486;-78
2022/09/04 13:34:36;;;;;;;1.98;1.87;;;31.30;43.50;;;;;;927317;153;27325;-78
2022/09/04 13:37:15;;;;;;;2.02;1.82;;;31.30;43.00;;;;;;929329;153;27480;-78
2022/09/04 13:39:44;;;;;;;1.65;1.55;;;31.30;43.10;;;;;;927600;153;27393;-78
2022/09/04 13:42:29;;;;;;;1.70;1.60;;;31.30;43.10;;;;;;928108;153;27400;-78
2022/09/04 13:45:04;;;;;;;2.30;1.57;;;31.30;43.10;;;;;;926579;153;27889;-78
2022/09/04 13:47:29;;;;;;;1.52;1.37;;;31.30;43.00;;;;;;928281;151;27452;-78
2022/09/04 13:49:55;;;;;;;1.75;1.65;;;31.30;42.80;;;;;;928348;153;27389;-78
2022/09/04 13:52:33;;;;;;;2.00;1.70;;;31.30;42.70;;;;;;928443;153;27398;-78
2022/09/04 13:55:00;;;;;;;1.50;1.40;;;31.30;42.80;;;;;;927948;153;27319;-78
2022/09/04 13:57:27;;;;;;;1.60;1.50;;;31.20;42.70;;;;;;929294;153;27368;-78
2022/09/04 13:59:53;;;;;;;1.25;1.20;;;31.20;42.80;;;;;;928054;153;27345;-78